sensor_id;sensor_type;location;lat;lon;timestamp;P1;durP1;ratioP1;P2;durP2;ratioP2
2618;SDS011;1319;52.346;13.096;2023-11-19T00:00:15;12.30;;;7.43;;
2618;SDS011;1319;52.346;13.096;2023-11-19T00:02:40;13.00;;;7.00;;
2618;SDS011;1319;52.346;13.096;2023-11-19T00:05:06;11.50;;;7.60;;
2618;SDS011;1319;52.346;13.096;2023-11-19T00:07:34;11.80;;;7.60;;
2618;SDS011;1319;52.346;13.096;2023-11-19T00:09:59;10.83;;;7.57;;
2618;SDS011;1319;52.346;13.096;2023-11-19T00:12:34;12.37;;;7.53;;
2618;SDS011;1319;52.346;13.096;2023-11-19T00:15:00;11.90;;;7.80;;
2618;SDS011;1319;52.346;13.096;2023-11-19T00:17:25;10.57;;;7.07;;
2618;SDS011;1319;52.346;13.096;2023-11-19T00:19:50;10.63;;;7.30;;
2618;SDS011;1319;52.346;13.096;2023-11-19T00:22:16;14.47;;;7.03;;
2618;SDS011;1319;52.346;13.096;2023-11-19T00:24:41;14.10;;;7.77;;
2618;SDS011;1319;52.346;13.096;2023-11-19T00:27:07;14.83;;;7.43;;
2618;SDS011;1319;52.346;13.096;2023-11-19T00:29:32;10.27;;;7.27;;
2618;SDS011;1319;52.346;13.096;2023-11-19T00:31:58;11.97;;;7.80;;
2618;SDS011;1319;52.346;13.096;2023-11-19T00:34:23;12.63;;;7.53;;
2618;SDS011;1319;52.346;13.096;2023-11-19T00:36:48;15.13;;;7.60;;
2618;SDS011;1319;52.346;13.096;2023-11-19T00:39:14;11.37;;;7.30;;
2618;SDS011;1319;52.346;13.096;2023-11-19T00:41:40;10.73;;;7.20;;
2618;SDS011;1319;52.346;13.096;2023-11-19T00:44:05;10.83;;;7.13;;
2618;SDS011;1319;52.346;13.096;2023-11-19T00:46:30;11.50;;;7.93;;
2618;SDS011;1319;52.346;13.096;2023-11-19T00:48:57;10.60;;;7.47;;
2618;SDS011;1319;52.346;13.096;2023-11-19T00:51:24;10.53;;;7.53;;
2618;SDS011;1319;52.346;13.096;2023-11-19T00:53:49;10.13;;;7.00;;
2618;SDS011;1319;52.346;13.096;2023-11-19T00:56:15;10.90;;;7.23;;
2618;SDS011;1319;52.346;13.096;2023-11-19T00:58:42;10.47;;;7.20;;
2618;SDS011;1319;52.346;13.096;2023-11-19T01:01:07;13.33;;;6.93;;
2618;SDS011;1319;52.346;13.096;2023-11-19T01:03:33;8.87;;;6.70;;
2618;SDS011;1319;52.346;13.096;2023-11-19T01:05:58;12.20;;;7.07;;
2618;SDS011;1319;52.346;13.096;2023-11-19T01:08:24;10.27;;;7.10;;
2618;SDS011;1319;52.346;13.096;2023-11-19T01:10:50;9.67;;;6.33;;
2618;SDS011;1319;52.346;13.096;2023-11-19T01:13:15;13.60;;;6.57;;
2618;SDS011;1319;52.346;13.096;2023-11-19T01:15:40;10.43;;;7.07;;
2618;SDS011;1319;52.346;13.096;2023-11-19T01:18:06;9.87;;;7.23;;
2618;SDS011;1319;52.346;13.096;2023-11-19T01:20:33;10.23;;;6.50;;
2618;SDS011;1319;52.346;13.096;2023-11-19T01:22:59;9.60;;;6.67;;
2618;SDS011;1319;52.346;13.096;2023-11-19T01:25:24;11.70;;;6.90;;
2618;SDS011;1319;52.346;13.096;2023-11-19T01:27:50;9.93;;;6.73;;
2618;SDS011;1319;52.346;13.096;2023-11-19T01:30:15;9.30;;;6.00;;
2618;SDS011;1319;52.346;13.096;2023-11-19T01:32:40;9.07;;;6.53;;
2618;SDS011;1319;52.346;13.096;2023-11-19T01:35:06;11.63;;;5.83;;
2618;SDS011;1319;52.346;13.096;2023-11-19T01:37:31;10.17;;;6.83;;
2618;SDS011;1319;52.346;13.096;2023-11-19T01:39:57;10.63;;;6.47;;
2618;SDS011;1319;52.346;13.096;2023-11-19T01:42:22;10.47;;;6.50;;
2618;SDS011;1319;52.346;13.096;2023-11-19T01:44:59;10.83;;;6.63;;
2618;SDS011;1319;52.346;13.096;2023-11-19T01:47:25;9.07;;;6.37;;
2618;SDS011;1319;52.346;13.096;2023-11-19T01:49:51;14.87;;;6.60;;
2618;SDS011;1319;52.346;13.096;2023-11-19T01:52:17;9.90;;;6.37;;
2618;SDS011;1319;52.346;13.096;2023-11-19T01:54:42;8.87;;;6.47;;
2618;SDS011;1319;52.346;13.096;2023-11-19T01:57:08;13.17;;;6.77;;
2618;SDS011;1319;52.346;13.096;2023-11-19T01:59:34;14.13;;;7.10;;
2618;SDS011;1319;52.346;13.096;2023-11-19T02:01:59;10.73;;;6.43;;
2618;SDS011;1319;52.346;13.096;2023-11-19T02:04:24;10.13;;;6.57;;
2618;SDS011;1319;52.346;13.096;2023-11-19T02:06:50;10.77;;;7.10;;
2618;SDS011;1319;52.346;13.096;2023-11-19T02:09:17;9.80;;;7.00;;
2618;SDS011;1319;52.346;13.096;2023-11-19T02:11:44;9.10;;;6.63;;
2618;SDS011;1319;52.346;13.096;2023-11-19T02:14:09;9.27;;;6.47;;
2618;SDS011;1319;52.346;13.096;2023-11-19T02:16:36;10.77;;;6.40;;
2618;SDS011;1319;52.346;13.096;2023-11-19T02:19:01;8.37;;;6.17;;
2618;SDS011;1319;52.346;13.096;2023-11-19T02:21:26;9.73;;;6.63;;
2618;SDS011;1319;52.346;13.096;2023-11-19T02:23:51;10.07;;;6.30;;
2618;SDS011;1319;52.346;13.096;2023-11-19T02:28:43;7.57;;;6.07;;
2618;SDS011;1319;52.346;13.096;2023-11-19T02:31:08;14.40;;;6.60;;
2618;SDS011;1319;52.346;13.096;2023-11-19T02:33:35;9.27;;;6.47;;
2618;SDS011;1319;52.346;13.096;2023-11-19T02:36:00;12.00;;;6.20;;
2618;SDS011;1319;52.346;13.096;2023-11-19T02:38:26;9.47;;;6.07;;
2618;SDS011;1319;52.346;13.096;2023-11-19T02:40:51;10.40;;;5.57;;
2618;SDS011;1319;52.346;13.096;2023-11-19T02:43:16;8.07;;;5.87;;
2618;SDS011;1319;52.346;13.096;2023-11-19T02:45:42;8.13;;;5.93;;
2618;SDS011;1319;52.346;13.096;2023-11-19T02:48:10;7.97;;;5.67;;
2618;SDS011;1319;52.346;13.096;2023-11-19T02:50:35;7.30;;;5.30;;
2618;SDS011;1319;52.346;13.096;2023-11-19T02:53:01;12.73;;;5.47;;
2618;SDS011;1319;52.346;13.096;2023-11-19T02:55:27;8.83;;;5.20;;
2618;SDS011;1319;52.346;13.096;2023-11-19T02:57:55;7.57;;;4.33;;
2618;SDS011;1319;52.346;13.096;2023-11-19T03:00:21;7.67;;;4.97;;
2618;SDS011;1319;52.346;13.096;2023-11-19T03:02:57;7.53;;;5.30;;
2618;SDS011;1319;52.346;13.096;2023-11-19T03:05:30;5.53;;;4.53;;
2618;SDS011;1319;52.346;13.096;2023-11-19T03:07:55;6.27;;;4.83;;
2618;SDS011;1319;52.346;13.096;2023-11-19T03:10:21;7.20;;;4.87;;
2618;SDS011;1319;52.346;13.096;2023-11-19T03:12:46;6.30;;;4.80;;
2618;SDS011;1319;52.346;13.096;2023-11-19T03:15:12;7.90;;;4.90;;
2618;SDS011;1319;52.346;13.096;2023-11-19T03:17:40;8.37;;;5.60;;
2618;SDS011;1319;52.346;13.096;2023-11-19T03:20:07;8.00;;;5.27;;
2618;SDS011;1319;52.346;13.096;2023-11-19T03:22:34;5.93;;;5.07;;
2618;SDS011;1319;52.346;13.096;2023-11-19T03:25:00;7.87;;;5.63;;
2618;SDS011;1319;52.346;13.096;2023-11-19T03:27:25;8.70;;;6.03;;
2618;SDS011;1319;52.346;13.096;2023-11-19T03:29:50;7.80;;;5.63;;
2618;SDS011;1319;52.346;13.096;2023-11-19T03:32:15;9.40;;;5.73;;
2618;SDS011;1319;52.346;13.096;2023-11-19T03:34:41;10.63;;;5.87;;
2618;SDS011;1319;52.346;13.096;2023-11-19T03:37:06;7.27;;;5.40;;
2618;SDS011;1319;52.346;13.096;2023-11-19T03:39:31;11.20;;;6.20;;
2618;SDS011;1319;52.346;13.096;2023-11-19T03:41:56;9.10;;;6.13;;
2618;SDS011;1319;52.346;13.096;2023-11-19T03:44:22;9.40;;;6.40;;
2618;SDS011;1319;52.346;13.096;2023-11-19T03:46:47;8.63;;;5.73;;
2618;SDS011;1319;52.346;13.096;2023-11-19T03:49:12;9.40;;;5.83;;
2618;SDS011;1319;52.346;13.096;2023-11-19T03:51:37;8.50;;;6.17;;
2618;SDS011;1319;52.346;13.096;2023-11-19T03:54:03;7.37;;;5.60;;
2618;SDS011;1319;52.346;13.096;2023-11-19T03:56:28;8.10;;;5.57;;
2618;SDS011;1319;52.346;13.096;2023-11-19T03:58:53;8.60;;;5.77;;
2618;SDS011;1319;52.346;13.096;2023-11-19T04:01:19;9.60;;;6.27;;
2618;SDS011;1319;52.346;13.096;2023-11-19T04:03:44;11.33;;;6.30;;
2618;SDS011;1319;52.346;13.096;2023-11-19T04:06:09;10.73;;;6.60;;
2618;SDS011;1319;52.346;13.096;2023-11-19T04:08:34;8.77;;;5.97;;
2618;SDS011;1319;52.346;13.096;2023-11-19T04:11:00;9.63;;;6.33;;
2618;SDS011;1319;52.346;13.096;2023-11-19T04:13:26;8.73;;;6.33;;
2618;SDS011;1319;52.346;13.096;2023-11-19T04:15:51;11.23;;;6.23;;
2618;SDS011;1319;52.346;13.096;2023-11-19T04:18:16;10.10;;;6.07;;
2618;SDS011;1319;52.346;13.096;2023-11-19T04:20:41;9.80;;;6.13;;
2618;SDS011;1319;52.346;13.096;2023-11-19T04:23:09;13.80;;;6.70;;
2618;SDS011;1319;52.346;13.096;2023-11-19T04:25:35;9.90;;;6.77;;
2618;SDS011;1319;52.346;13.096;2023-11-19T04:28:01;10.47;;;6.40;;
2618;SDS011;1319;52.346;13.096;2023-11-19T04:30:27;10.87;;;6.73;;
2618;SDS011;1319;52.346;13.096;2023-11-19T04:32:52;11.43;;;6.20;;
2618;SDS011;1319;52.346;13.096;2023-11-19T04:35:17;10.00;;;6.77;;
2618;SDS011;1319;52.346;13.096;2023-11-19T04:37:44;10.33;;;6.43;;
2618;SDS011;1319;52.346;13.096;2023-11-19T04:40:09;10.40;;;5.90;;
2618;SDS011;1319;52.346;13.096;2023-11-19T04:42:35;9.93;;;6.67;;
2618;SDS011;1319;52.346;13.096;2023-11-19T04:45:01;9.90;;;6.67;;
2618;SDS011;1319;52.346;13.096;2023-11-19T04:47:26;10.90;;;6.70;;
2618;SDS011;1319;52.346;13.096;2023-11-19T04:49:51;11.93;;;6.60;;
2618;SDS011;1319;52.346;13.096;2023-11-19T04:52:16;11.17;;;7.07;;
2618;SDS011;1319;52.346;13.096;2023-11-19T04:54:42;14.37;;;7.80;;
2618;SDS011;1319;52.346;13.096;2023-11-19T04:57:08;11.80;;;7.77;;
2618;SDS011;1319;52.346;13.096;2023-11-19T04:59:36;16.10;;;7.77;;
2618;SDS011;1319;52.346;13.096;2023-11-19T05:02:01;15.13;;;7.87;;
2618;SDS011;1319;52.346;13.096;2023-11-19T05:04:26;12.83;;;7.67;;
2618;SDS011;1319;52.346;13.096;2023-11-19T05:06:51;13.77;;;8.07;;
2618;SDS011;1319;52.346;13.096;2023-11-19T05:09:16;14.70;;;8.17;;
2618;SDS011;1319;52.346;13.096;2023-11-19T05:11:43;14.03;;;7.40;;
2618;SDS011;1319;52.346;13.096;2023-11-19T05:14:08;12.30;;;7.90;;
2618;SDS011;1319;52.346;13.096;2023-11-19T05:16:34;12.23;;;8.10;;
2618;SDS011;1319;52.346;13.096;2023-11-19T05:19:00;12.10;;;8.10;;
2618;SDS011;1319;52.346;13.096;2023-11-19T05:21:25;11.33;;;7.77;;
2618;SDS011;1319;52.346;13.096;2023-11-19T05:23:50;12.03;;;7.93;;
2618;SDS011;1319;52.346;13.096;2023-11-19T05:26:19;13.37;;;7.70;;
2618;SDS011;1319;52.346;13.096;2023-11-19T05:28:45;10.97;;;7.43;;
2618;SDS011;1319;52.346;13.096;2023-11-19T05:31:10;13.87;;;7.87;;
2618;SDS011;1319;52.346;13.096;2023-11-19T05:33:35;12.53;;;7.70;;
2618;SDS011;1319;52.346;13.096;2023-11-19T05:36:01;11.40;;;7.73;;
2618;SDS011;1319;52.346;13.096;2023-11-19T05:38:28;12.63;;;7.50;;
2618;SDS011;1319;52.346;13.096;2023-11-19T05:40:54;13.43;;;7.33;;
2618;SDS011;1319;52.346;13.096;2023-11-19T05:43:19;12.03;;;7.73;;
2618;SDS011;1319;52.346;13.096;2023-11-19T05:45:44;12.67;;;7.80;;
2618;SDS011;1319;52.346;13.096;2023-11-19T05:48:09;11.53;;;7.63;;
2618;SDS011;1319;52.346;13.096;2023-11-19T05:50:34;11.23;;;6.90;;
2618;SDS011;1319;52.346;13.096;2023-11-19T05:53:00;11.60;;;7.60;;
2618;SDS011;1319;52.346;13.096;2023-11-19T05:55:26;11.93;;;7.73;;
2618;SDS011;1319;52.346;13.096;2023-11-19T05:57:53;12.63;;;7.80;;
2618;SDS011;1319;52.346;13.096;2023-11-19T06:00:18;12.60;;;8.23;;
2618;SDS011;1319;52.346;13.096;2023-11-19T06:02:43;11.80;;;7.57;;
2618;SDS011;1319;52.346;13.096;2023-11-19T06:05:08;14.07;;;7.93;;
2618;SDS011;1319;52.346;13.096;2023-11-19T06:07:34;10.60;;;7.40;;
2618;SDS011;1319;52.346;13.096;2023-11-19T06:10:00;15.23;;;7.80;;
2618;SDS011;1319;52.346;13.096;2023-11-19T06:12:26;12.80;;;7.90;;
2618;SDS011;1319;52.346;13.096;2023-11-19T06:14:52;13.10;;;8.23;;
2618;SDS011;1319;52.346;13.096;2023-11-19T06:17:18;11.90;;;8.23;;
2618;SDS011;1319;52.346;13.096;2023-11-19T06:19:43;12.57;;;7.70;;
2618;SDS011;1319;52.346;13.096;2023-11-19T06:22:08;11.27;;;6.70;;
2618;SDS011;1319;52.346;13.096;2023-11-19T06:24:33;12.60;;;7.03;;
2618;SDS011;1319;52.346;13.096;2023-11-19T06:26:58;9.83;;;6.93;;
2618;SDS011;1319;52.346;13.096;2023-11-19T06:29:24;14.27;;;6.73;;
2618;SDS011;1319;52.346;13.096;2023-11-19T06:31:49;10.80;;;7.17;;
2618;SDS011;1319;52.346;13.096;2023-11-19T06:34:15;12.20;;;7.77;;
2618;SDS011;1319;52.346;13.096;2023-11-19T06:36:40;10.07;;;6.97;;
2618;SDS011;1319;52.346;13.096;2023-11-19T06:39:05;9.60;;;6.90;;
2618;SDS011;1319;52.346;13.096;2023-11-19T06:41:31;9.40;;;6.60;;
2618;SDS011;1319;52.346;13.096;2023-11-19T06:43:56;10.00;;;6.33;;
2618;SDS011;1319;52.346;13.096;2023-11-19T06:46:21;9.70;;;6.50;;
2618;SDS011;1319;52.346;13.096;2023-11-19T06:48:46;10.67;;;6.80;;
2618;SDS011;1319;52.346;13.096;2023-11-19T06:51:12;10.30;;;6.07;;
2618;SDS011;1319;52.346;13.096;2023-11-19T06:53:37;8.83;;;5.70;;
2618;SDS011;1319;52.346;13.096;2023-11-19T06:56:05;8.93;;;6.00;;
2618;SDS011;1319;52.346;13.096;2023-11-19T06:58:31;8.87;;;5.90;;
2618;SDS011;1319;52.346;13.096;2023-11-19T07:00:57;8.80;;;5.90;;
2618;SDS011;1319;52.346;13.096;2023-11-19T07:03:22;8.07;;;5.53;;
2618;SDS011;1319;52.346;13.096;2023-11-19T07:05:47;6.67;;;5.17;;
2618;SDS011;1319;52.346;13.096;2023-11-19T07:08:13;8.77;;;6.50;;
2618;SDS011;1319;52.346;13.096;2023-11-19T07:10:38;6.73;;;5.07;;
2618;SDS011;1319;52.346;13.096;2023-11-19T07:13:04;7.20;;;5.43;;
2618;SDS011;1319;52.346;13.096;2023-11-19T07:15:30;9.93;;;6.30;;
2618;SDS011;1319;52.346;13.096;2023-11-19T07:17:56;7.50;;;5.37;;
2618;SDS011;1319;52.346;13.096;2023-11-19T07:20:23;5.83;;;5.07;;
2618;SDS011;1319;52.346;13.096;2023-11-19T07:22:48;6.73;;;5.10;;
2618;SDS011;1319;52.346;13.096;2023-11-19T07:25:13;7.07;;;5.03;;
2618;SDS011;1319;52.346;13.096;2023-11-19T07:27:39;9.37;;;5.60;;
2618;SDS011;1319;52.346;13.096;2023-11-19T07:30:05;8.30;;;5.90;;
2618;SDS011;1319;52.346;13.096;2023-11-19T07:32:32;6.37;;;5.07;;
2618;SDS011;1319;52.346;13.096;2023-11-19T07:34:57;6.37;;;4.93;;
2618;SDS011;1319;52.346;13.096;2023-11-19T07:37:22;6.17;;;5.10;;
2618;SDS011;1319;52.346;13.096;2023-11-19T07:39:48;6.20;;;4.93;;
2618;SDS011;1319;52.346;13.096;2023-11-19T07:42:13;7.80;;;5.60;;
2618;SDS011;1319;52.346;13.096;2023-11-19T07:44:38;7.40;;;5.20;;
2618;SDS011;1319;52.346;13.096;2023-11-19T07:47:03;6.20;;;5.60;;
2618;SDS011;1319;52.346;13.096;2023-11-19T07:49:29;9.10;;;6.20;;
2618;SDS011;1319;52.346;13.096;2023-11-19T07:51:55;6.83;;;5.67;;
2618;SDS011;1319;52.346;13.096;2023-11-19T07:54:21;7.83;;;5.40;;
2618;SDS011;1319;52.346;13.096;2023-11-19T07:56:46;6.47;;;5.30;;
2618;SDS011;1319;52.346;13.096;2023-11-19T07:59:11;6.30;;;5.30;;
2618;SDS011;1319;52.346;13.096;2023-11-19T08:01:37;9.30;;;5.60;;
2618;SDS011;1319;52.346;13.096;2023-11-19T08:04:02;5.80;;;5.20;;
2618;SDS011;1319;52.346;13.096;2023-11-19T08:06:27;7.80;;;5.77;;
2618;SDS011;1319;52.346;13.096;2023-11-19T08:08:53;7.93;;;5.60;;
2618;SDS011;1319;52.346;13.096;2023-11-19T08:11:18;6.53;;;5.40;;
2618;SDS011;1319;52.346;13.096;2023-11-19T08:13:44;8.30;;;5.70;;
2618;SDS011;1319;52.346;13.096;2023-11-19T08:16:10;8.57;;;5.40;;
2618;SDS011;1319;52.346;13.096;2023-11-19T08:18:35;7.97;;;5.77;;
2618;SDS011;1319;52.346;13.096;2023-11-19T08:21:01;6.70;;;5.67;;
2618;SDS011;1319;52.346;13.096;2023-11-19T08:23:26;5.63;;;4.90;;
2618;SDS011;1319;52.346;13.096;2023-11-19T08:25:53;7.40;;;5.30;;
2618;SDS011;1319;52.346;13.096;2023-11-19T08:28:19;6.27;;;5.17;;
2618;SDS011;1319;52.346;13.096;2023-11-19T08:30:44;8.90;;;4.77;;
2618;SDS011;1319;52.346;13.096;2023-11-19T08:33:09;5.57;;;4.50;;
2618;SDS011;1319;52.346;13.096;2023-11-19T08:35:35;6.47;;;4.33;;
2618;SDS011;1319;52.346;13.096;2023-11-19T08:38:00;7.07;;;4.10;;
2618;SDS011;1319;52.346;13.096;2023-11-19T08:40:26;5.73;;;4.00;;
2618;SDS011;1319;52.346;13.096;2023-11-19T08:42:51;6.00;;;4.10;;
2618;SDS011;1319;52.346;13.096;2023-11-19T08:45:16;4.63;;;3.77;;
2618;SDS011;1319;52.346;13.096;2023-11-19T08:47:41;4.60;;;3.50;;
2618;SDS011;1319;52.346;13.096;2023-11-19T08:50:07;4.97;;;3.50;;
2618;SDS011;1319;52.346;13.096;2023-11-19T08:52:33;4.73;;;3.17;;
2618;SDS011;1319;52.346;13.096;2023-11-19T08:54:58;3.40;;;2.90;;
2618;SDS011;1319;52.346;13.096;2023-11-19T08:57:23;3.27;;;2.80;;
2618;SDS011;1319;52.346;13.096;2023-11-19T08:59:49;4.17;;;2.80;;
2618;SDS011;1319;52.346;13.096;2023-11-19T09:02:15;3.10;;;2.80;;
2618;SDS011;1319;52.346;13.096;2023-11-19T09:04:41;2.50;;;2.30;;
2618;SDS011;1319;52.346;13.096;2023-11-19T09:07:06;3.10;;;2.33;;
2618;SDS011;1319;52.346;13.096;2023-11-19T09:09:34;2.40;;;2.20;;
2618;SDS011;1319;52.346;13.096;2023-11-19T09:12:01;2.40;;;2.20;;
2618;SDS011;1319;52.346;13.096;2023-11-19T09:14:26;2.50;;;2.40;;
2618;SDS011;1319;52.346;13.096;2023-11-19T09:16:51;2.50;;;1.87;;
2618;SDS011;1319;52.346;13.096;2023-11-19T09:19:17;2.67;;;2.10;;
2618;SDS011;1319;52.346;13.096;2023-11-19T09:21:42;3.47;;;2.10;;
2618;SDS011;1319;52.346;13.096;2023-11-19T09:24:08;2.23;;;1.80;;
2618;SDS011;1319;52.346;13.096;2023-11-19T09:26:33;2.57;;;1.83;;
2618;SDS011;1319;52.346;13.096;2023-11-19T09:28:58;3.50;;;1.80;;
2618;SDS011;1319;52.346;13.096;2023-11-19T09:31:23;3.87;;;1.77;;
2618;SDS011;1319;52.346;13.096;2023-11-19T09:33:49;1.87;;;1.77;;
2618;SDS011;1319;52.346;13.096;2023-11-19T09:36:14;3.10;;;1.97;;
2618;SDS011;1319;52.346;13.096;2023-11-19T09:38:41;5.20;;;1.70;;
2618;SDS011;1319;52.346;13.096;2023-11-19T09:41:07;2.00;;;1.77;;
2618;SDS011;1319;52.346;13.096;2023-11-19T09:43:37;2.63;;;1.80;;
2618;SDS011;1319;52.346;13.096;2023-11-19T09:46:06;3.43;;;1.93;;
2618;SDS011;1319;52.346;13.096;2023-11-19T09:48:36;1.77;;;1.67;;
2618;SDS011;1319;52.346;13.096;2023-11-19T09:51:02;1.93;;;1.70;;
2618;SDS011;1319;52.346;13.096;2023-11-19T09:53:27;1.90;;;1.80;;
2618;SDS011;1319;52.346;13.096;2023-11-19T09:55:53;1.83;;;1.70;;
2618;SDS011;1319;52.346;13.096;2023-11-19T09:58:18;3.67;;;1.67;;
2618;SDS011;1319;52.346;13.096;2023-11-19T10:00:43;1.63;;;1.60;;
2618;SDS011;1319;52.346;13.096;2023-11-19T10:03:09;2.40;;;1.67;;
2618;SDS011;1319;52.346;13.096;2023-11-19T10:05:36;2.93;;;1.90;;
2618;SDS011;1319;52.346;13.096;2023-11-19T10:08:03;2.07;;;1.70;;
2618;SDS011;1319;52.346;13.096;2023-11-19T10:10:28;4.77;;;1.90;;
2618;SDS011;1319;52.346;13.096;2023-11-19T10:12:53;4.00;;;1.60;;
2618;SDS011;1319;52.346;13.096;2023-11-19T10:15:20;2.53;;;1.63;;
2618;SDS011;1319;52.346;13.096;2023-11-19T10:17:47;4.57;;;2.20;;
2618;SDS011;1319;52.346;13.096;2023-11-19T10:20:12;5.53;;;1.73;;
2618;SDS011;1319;52.346;13.096;2023-11-19T10:22:38;5.70;;;1.70;;
2618;SDS011;1319;52.346;13.096;2023-11-19T10:25:04;2.87;;;1.80;;
2618;SDS011;1319;52.346;13.096;2023-11-19T10:27:29;2.03;;;1.50;;
2618;SDS011;1319;52.346;13.096;2023-11-19T10:29:58;3.00;;;1.77;;
2618;SDS011;1319;52.346;13.096;2023-11-19T10:32:24;3.83;;;1.80;;
2618;SDS011;1319;52.346;13.096;2023-11-19T10:34:49;4.23;;;2.37;;
2618;SDS011;1319;52.346;13.096;2023-11-19T10:37:48;4.07;;;1.70;;
2618;SDS011;1319;52.346;13.096;2023-11-19T10:40:06;2.90;;;1.93;;
2618;SDS011;1319;52.346;13.096;2023-11-19T10:42:35;6.87;;;2.00;;
2618;SDS011;1319;52.346;13.096;2023-11-19T10:45:00;3.67;;;1.80;;
2618;SDS011;1319;52.346;13.096;2023-11-19T10:47:26;5.23;;;1.97;;
2618;SDS011;1319;52.346;13.096;2023-11-19T10:49:51;5.90;;;2.10;;
2618;SDS011;1319;52.346;13.096;2023-11-19T10:52:19;7.97;;;2.20;;
2618;SDS011;1319;52.346;13.096;2023-11-19T10:54:47;9.53;;;2.17;;
2618;SDS011;1319;52.346;13.096;2023-11-19T10:57:13;7.17;;;2.27;;
2618;SDS011;1319;52.346;13.096;2023-11-19T10:59:40;12.93;;;2.77;;
2618;SDS011;1319;52.346;13.096;2023-11-19T11:02:07;13.03;;;2.80;;
2618;SDS011;1319;52.346;13.096;2023-11-19T11:04:36;10.43;;;2.60;;
2618;SDS011;1319;52.346;13.096;2023-11-19T11:07:04;16.67;;;2.90;;
2618;SDS011;1319;52.346;13.096;2023-11-19T11:09:30;14.53;;;2.77;;
2618;SDS011;1319;52.346;13.096;2023-11-19T11:11:56;7.60;;;2.50;;
2618;SDS011;1319;52.346;13.096;2023-11-19T11:14:22;12.07;;;2.80;;
2618;SDS011;1319;52.346;13.096;2023-11-19T11:16:48;14.07;;;3.13;;
2618;SDS011;1319;52.346;13.096;2023-11-19T11:19:15;11.10;;;3.20;;
2618;SDS011;1319;52.346;13.096;2023-11-19T11:21:42;9.10;;;2.67;;
2618;SDS011;1319;52.346;13.096;2023-11-19T11:37:01;5.60;;;2.47;;
2618;SDS011;1319;52.346;13.096;2023-11-19T11:39:28;6.90;;;2.30;;
2618;SDS011;1319;52.346;13.096;2023-11-19T11:47:22;9.87;;;2.40;;
2618;SDS011;1319;52.346;13.096;2023-11-19T11:49:48;10.40;;;2.70;;
2618;SDS011;1319;52.346;13.096;2023-11-19T11:52:14;12.10;;;2.73;;
2618;SDS011;1319;52.346;13.096;2023-11-19T11:54:41;8.90;;;2.63;;
2618;SDS011;1319;52.346;13.096;2023-11-19T11:57:12;12.93;;;2.90;;
2618;SDS011;1319;52.346;13.096;2023-11-19T12:02:07;13.03;;;2.70;;
2618;SDS011;1319;52.346;13.096;2023-11-19T12:04:33;17.20;;;2.90;;
2618;SDS011;1319;52.346;13.096;2023-11-19T12:09:31;7.63;;;2.47;;
2618;SDS011;1319;52.346;13.096;2023-11-19T12:12:13;12.27;;;3.20;;
2618;SDS011;1319;52.346;13.096;2023-11-19T12:20:05;17.87;;;3.50;;
2618;SDS011;1319;52.346;13.096;2023-11-19T12:22:34;16.53;;;3.23;;
2618;SDS011;1319;52.346;13.096;2023-11-19T12:25:00;20.77;;;3.50;;
2618;SDS011;1319;52.346;13.096;2023-11-19T12:27:25;12.33;;;3.23;;
2618;SDS011;1319;52.346;13.096;2023-11-19T12:29:51;12.23;;;3.33;;
2618;SDS011;1319;52.346;13.096;2023-11-19T12:32:16;15.93;;;3.67;;
2618;SDS011;1319;52.346;13.096;2023-11-19T12:34:42;22.30;;;4.07;;
2618;SDS011;1319;52.346;13.096;2023-11-19T12:37:07;15.47;;;3.40;;
2618;SDS011;1319;52.346;13.096;2023-11-19T12:39:34;21.90;;;4.03;;
2618;SDS011;1319;52.346;13.096;2023-11-19T12:42:00;17.60;;;4.07;;
2618;SDS011;1319;52.346;13.096;2023-11-19T12:44:25;21.50;;;3.53;;
2618;SDS011;1319;52.346;13.096;2023-11-19T12:47:06;17.20;;;3.90;;
2618;SDS011;1319;52.346;13.096;2023-11-19T12:49:32;19.73;;;3.50;;
2618;SDS011;1319;52.346;13.096;2023-11-19T12:51:58;17.33;;;3.90;;
2618;SDS011;1319;52.346;13.096;2023-11-19T12:54:36;18.87;;;3.97;;
2618;SDS011;1319;52.346;13.096;2023-11-19T12:57:01;18.10;;;4.30;;
2618;SDS011;1319;52.346;13.096;2023-11-19T12:59:27;17.23;;;4.00;;
2618;SDS011;1319;52.346;13.096;2023-11-19T13:01:58;22.90;;;4.30;;
2618;SDS011;1319;52.346;13.096;2023-11-19T13:04:27;26.83;;;4.70;;
2618;SDS011;1319;52.346;13.096;2023-11-19T13:06:53;18.90;;;4.10;;
2618;SDS011;1319;52.346;13.096;2023-11-19T13:09:22;18.33;;;4.50;;
2618;SDS011;1319;52.346;13.096;2023-11-19T13:11:49;21.13;;;4.13;;
2618;SDS011;1319;52.346;13.096;2023-11-19T13:14:14;21.33;;;4.70;;
2618;SDS011;1319;52.346;13.096;2023-11-19T13:16:39;28.83;;;5.30;;
2618;SDS011;1319;52.346;13.096;2023-11-19T13:19:05;17.53;;;4.23;;
2618;SDS011;1319;52.346;13.096;2023-11-19T13:21:30;16.40;;;4.27;;
2618;SDS011;1319;52.346;13.096;2023-11-19T13:23:56;16.40;;;3.67;;
2618;SDS011;1319;52.346;13.096;2023-11-19T13:26:21;17.87;;;4.40;;
2618;SDS011;1319;52.346;13.096;2023-11-19T13:28:46;19.40;;;4.60;;
2618;SDS011;1319;52.346;13.096;2023-11-19T13:31:12;20.97;;;4.03;;
2618;SDS011;1319;52.346;13.096;2023-11-19T13:33:37;21.53;;;4.37;;
2618;SDS011;1319;52.346;13.096;2023-11-19T13:36:03;15.13;;;4.23;;
2618;SDS011;1319;52.346;13.096;2023-11-19T13:38:31;21.97;;;4.57;;
2618;SDS011;1319;52.346;13.096;2023-11-19T13:40:57;18.33;;;4.23;;
2618;SDS011;1319;52.346;13.096;2023-11-19T13:43:23;25.63;;;4.37;;
2618;SDS011;1319;52.346;13.096;2023-11-19T13:45:49;18.17;;;3.97;;
2618;SDS011;1319;52.346;13.096;2023-11-19T13:48:14;21.87;;;4.13;;
2618;SDS011;1319;52.346;13.096;2023-11-19T13:50:39;24.33;;;4.17;;
2618;SDS011;1319;52.346;13.096;2023-11-19T13:53:04;21.67;;;4.20;;
2618;SDS011;1319;52.346;13.096;2023-11-19T13:55:30;25.27;;;5.07;;
2618;SDS011;1319;52.346;13.096;2023-11-19T13:57:55;29.43;;;4.30;;
2618;SDS011;1319;52.346;13.096;2023-11-19T14:00:20;20.77;;;4.03;;
2618;SDS011;1319;52.346;13.096;2023-11-19T14:02:48;21.80;;;3.83;;
2618;SDS011;1319;52.346;13.096;2023-11-19T14:05:13;22.07;;;4.07;;
2618;SDS011;1319;52.346;13.096;2023-11-19T14:07:39;19.17;;;3.87;;
2618;SDS011;1319;52.346;13.096;2023-11-19T14:10:05;26.20;;;4.47;;
2618;SDS011;1319;52.346;13.096;2023-11-19T14:12:31;22.67;;;3.97;;
2618;SDS011;1319;52.346;13.096;2023-11-19T14:14:57;23.37;;;4.00;;
2618;SDS011;1319;52.346;13.096;2023-11-19T14:17:22;24.27;;;3.87;;
2618;SDS011;1319;52.346;13.096;2023-11-19T14:19:47;24.37;;;3.90;;
2618;SDS011;1319;52.346;13.096;2023-11-19T14:22:13;23.93;;;4.43;;
2618;SDS011;1319;52.346;13.096;2023-11-19T14:24:38;27.27;;;4.87;;
2618;SDS011;1319;52.346;13.096;2023-11-19T14:27:05;26.17;;;4.00;;
2618;SDS011;1319;52.346;13.096;2023-11-19T14:29:31;24.30;;;4.40;;
2618;SDS011;1319;52.346;13.096;2023-11-19T14:31:56;24.90;;;4.60;;
2618;SDS011;1319;52.346;13.096;2023-11-19T14:34:22;18.17;;;3.70;;
2618;SDS011;1319;52.346;13.096;2023-11-19T14:36:47;17.10;;;4.00;;
2618;SDS011;1319;52.346;13.096;2023-11-19T14:39:12;28.83;;;4.27;;
2618;SDS011;1319;52.346;13.096;2023-11-19T14:41:38;22.90;;;4.00;;
2618;SDS011;1319;52.346;13.096;2023-11-19T14:44:04;25.23;;;4.73;;
2618;SDS011;1319;52.346;13.096;2023-11-19T14:46:29;23.07;;;4.03;;
2618;SDS011;1319;52.346;13.096;2023-11-19T14:48:54;20.13;;;3.80;;
2618;SDS011;1319;52.346;13.096;2023-11-19T14:51:19;20.67;;;4.27;;
2618;SDS011;1319;52.346;13.096;2023-11-19T14:53:45;27.90;;;4.40;;
2618;SDS011;1319;52.346;13.096;2023-11-19T14:56:11;25.53;;;4.83;;
2618;SDS011;1319;52.346;13.096;2023-11-19T14:58:37;23.87;;;3.70;;
2618;SDS011;1319;52.346;13.096;2023-11-19T15:01:03;17.20;;;3.83;;
2618;SDS011;1319;52.346;13.096;2023-11-19T15:03:29;23.17;;;3.50;;
2618;SDS011;1319;52.346;13.096;2023-11-19T15:05:55;25.83;;;4.03;;
2618;SDS011;1319;52.346;13.096;2023-11-19T15:08:21;22.40;;;3.70;;
2618;SDS011;1319;52.346;13.096;2023-11-19T15:10:46;19.10;;;3.20;;
2618;SDS011;1319;52.346;13.096;2023-11-19T15:13:11;24.37;;;4.30;;
2618;SDS011;1319;52.346;13.096;2023-11-19T15:15:37;23.37;;;3.77;;